Laredo International Airport
KLRD : rendu visible

Aérodrome :











RETROUVEZ-NOUS SUR...

 
LOGIN :

S'inscrire | Disclaimer

   EN    FR    IT 

 









Légende :    VFR   VFR Marginal   IFR   IFR Intensif   IFR Très Intensif
Visi : 
Plafond : 
>= 8 km
>= 3000ft
5 à 8 km
1000 à 3000 ft
1500m à 5 km
500 à 1000 ft
800 à 1500m
200 à 500 ft
< 800m
< 200 ft
Symboles :   Orages  Brouillard  Fortes neiges  Fortes précipitations  Vent > 20 kt






- Altitude de l'aérodrome : 508 ft
- Code IATA : LRD


KLRD - Laredo International

DERNIER METAR :
  • 181646Z 30007KT 6SM BR OVC005 17/16 A3020 RMK AO2

METARs EXPIRÉS :
  • 181607Z 31006KT 3SM BR OVC003 16/16 A3019 RMK AO2
  • 181556Z 30006KT 2 1/2SM BR OVC003 16/16 A3019 RMK AO2 SLP223 T01610156
  • 181549Z 29005KT 1 1/2SM BR OVC003 16/15 A3019 RMK AO2
  • 181530Z 28004KT 1SM BR OVC003 16/15 A3018 RMK AO2
  • 181520Z 28004KT 1 1/2SM BR OVC003 16/15 A3018 RMK AO2
  • 181456Z 29005KT 2 1/2SM BR OVC003 16/15 A3017 RMK AO2 SLP216 T01560150 51017
  • 181441Z 28006KT 3SM BR OVC003 16/15 A3016 RMK AO2
  • 181434Z 29006KT 2 1/2SM BR OVC003 16/15 A3016 RMK AO2
  • 181356Z 31004KT 6SM BR OVC003 15/14 A3014 RMK AO2 SLP206 T01500144

TAF KLRD
Valide du 18 à 15h jusqu'au 19 à 12h UTC


181504Z 1815/1912 31004KT P6SM BKN015
TEMPO 1815/1817 2SM BR OVC005
FM182100 35012KT P6SM BKN035



MET'MAP, la Météo Aéronautique d'un coup d'oeil ! - Copyright ORBIFLY Décembre 2007 - Disclaimer

ORBIFLY MET'MAP TEAM :

Programmation & Développement : Alexandra Zaïnal
Sur une idée originale de : Baudouin d'Aumeries
Assistance à la programmation : Marc-Olivier Méhu
Soutien technique & logistique : Manuel Goepfert

Contact : metmap@orbifly.com




SOURCES & CREDITS :

   NOAA       Earth
Advisory